Time;durP1;ratioP1;P1;durP2;ratioP2;P2;SDS_P1;SDS_P2;PMS_P1;PMS_P2;Temp;Humidity;BMP_temperature;BMP_pressure;BME280_temperature;BME280_humidity;BME280_pressure;Samples;Min_cycle;Max_cycle;Signal;HPM_P1;HPM_P2
2022/08/20 00:02:09;;;;;;;12.88;9.32;;;;;;;;;;10068827;28;20050;-66
2022/08/20 00:07:06;;;;;;;14.23;9.15;;;;;;;;;;10063118;28;20077;-67
2022/08/20 00:12:03;;;;;;;9.95;7.85;;;;;;;;;;10064659;28;20149;-67
2022/08/20 00:17:00;;;;;;;11.35;7.78;;;;;;;;;;10064453;28;20047;-67
2022/08/20 00:21:56;;;;;;;13.38;8.68;;;;;;;;;;10060004;28;20130;-67
2022/08/20 00:26:53;;;;;;;9.95;7.97;;;;;;;;;;10057451;28;20421;-67
2022/08/20 00:31:50;;;;;;;10.32;7.15;;;;;;;;;;10064441;28;20122;-67
2022/08/20 00:36:46;;;;;;;10.13;7.60;;;;;;;;;;10061058;28;20086;-68
2022/08/20 00:41:42;;;;;;;12.50;7.07;;;;;;;;;;10070823;28;20055;-67
2022/08/20 00:46:39;;;;;;;9.07;6.50;;;;;;;;;;10061800;28;20075;-67
2022/08/20 00:51:38;;;;;;;8.40;6.05;;;;;;;;;;10069338;28;20051;-67
2022/08/20 00:56:35;;;;;;;7.00;5.30;;;;;;;;;;10071846;28;20102;-67
2022/08/20 01:01:33;;;;;;;7.60;5.53;;;;;;;;;;10064585;28;20048;-68
2022/08/20 01:06:47;;;;;;;8.07;5.22;;;;;;;;;;10073635;28;20039;-67
2022/08/20 01:11:44;;;;;;;7.25;5.40;;;;;;;;;;10070246;28;20067;-67
2022/08/20 01:16:42;;;;;;;6.63;4.85;;;;;;;;;;10064926;28;20074;-67
2022/08/20 01:21:39;;;;;;;6.38;4.50;;;;;;;;;;10068229;28;20075;-67
2022/08/20 01:26:41;;;;;;;7.35;5.70;;;;;;;;;;10069161;28;20552;-67
2022/08/20 01:31:39;;;;;;;6.85;4.40;;;;;;;;;;10073639;28;20074;-67
2022/08/20 01:36:47;;;;;;;5.95;4.00;;;;;;;;;;10064524;28;20151;-67
2022/08/20 01:42:01;;;;;;;6.53;4.55;;;;;;;;;;10065359;28;20086;-66
2022/08/20 01:47:07;;;;;;;6.72;4.75;;;;;;;;;;10065856;28;20047;-67
2022/08/20 01:52:06;;;;;;;6.10;4.25;;;;;;;;;;10066179;28;20070;-66
2022/08/20 01:57:11;;;;;;;7.25;4.82;;;;;;;;;;10065939;28;20478;-66
2022/08/20 02:02:08;;;;;;;7.38;5.40;;;;;;;;;;10066461;28;20085;-66
2022/08/20 02:07:07;;;;;;;6.88;5.20;;;;;;;;;;10058701;28;20074;-66
2022/08/20 02:12:04;;;;;;;5.57;4.18;;;;;;;;;;10057845;28;20086;-67
2022/08/20 02:17:01;;;;;;;7.60;5.32;;;;;;;;;;10067631;28;20079;-66
2022/08/20 02:21:58;;;;;;;8.20;3.92;;;;;;;;;;10065362;28;20137;-67
2022/08/20 02:26:55;;;;;;;10.63;5.00;;;;;;;;;;10068917;28;20071;-66
2022/08/20 02:31:53;;;;;;;5.78;4.18;;;;;;;;;;10065619;28;20063;-67
2022/08/20 02:37:12;;;;;;;8.15;4.90;;;;;;;;;;10061979;28;20137;-66
2022/08/20 02:42:08;;;;;;;6.70;5.20;;;;;;;;;;10058434;28;20596;-66
2022/08/20 02:47:05;;;;;;;5.95;4.18;;;;;;;;;;10061790;28;20089;-66
2022/08/20 02:52:02;;;;;;;6.68;5.22;;;;;;;;;;10071602;28;20130;-66
2022/08/20 02:56:58;;;;;;;8.93;5.85;;;;;;;;;;10067597;28;20486;-66
2022/08/20 03:01:54;;;;;;;13.50;5.78;;;;;;;;;;10054194;28;20090;-67
2022/08/20 03:06:57;;;;;;;13.03;7.47;;;;;;;;;;10057949;28;20058;-67
2022/08/20 03:11:53;;;;;;;13.15;8.63;;;;;;;;;;10066682;28;20142;-67
2022/08/20 03:16:50;;;;;;;13.52;8.60;;;;;;;;;;10068615;28;20480;-66
2022/08/20 03:21:46;;;;;;;14.57;9.95;;;;;;;;;;10063886;28;20141;-67
2022/08/20 03:26:43;;;;;;;12.48;8.63;;;;;;;;;;10070747;28;20134;-68
2022/08/20 03:31:39;;;;;;;15.15;8.75;;;;;;;;;;10068203;28;20050;-69
2022/08/20 03:36:35;;;;;;;14.52;9.75;;;;;;;;;;10057565;28;20047;-68
2022/08/20 03:41:32;;;;;;;16.02;12.10;;;;;;;;;;10062275;28;20047;-67
2022/08/20 03:46:28;;;;;;;16.35;9.95;;;;;;;;;;10063366;28;20506;-69
2022/08/20 03:51:24;;;;;;;20.42;12.65;;;;;;;;;;10058386;28;20047;-68
2022/08/20 03:56:21;;;;;;;19.10;13.77;;;;;;;;;;10068852;28;20131;-69
2022/08/20 04:01:17;;;;;;;27.42;13.52;;;;;;;;;;10056507;28;20429;-69
2022/08/20 04:06:33;;;;;;;18.83;12.80;;;;;;;;;;10059548;28;20043;-69
2022/08/20 04:11:32;;;;;;;17.77;12.63;;;;;;;;;;10044390;28;20078;-68
2022/08/20 04:16:28;;;;;;;17.30;12.27;;;;;;;;;;10045141;28;20134;-68
2022/08/20 04:21:25;;;;;;;15.32;10.18;;;;;;;;;;10048182;28;20130;-69
2022/08/20 04:26:27;;;;;;;16.23;11.77;;;;;;;;;;10046077;28;20047;-68
2022/08/20 04:31:24;;;;;;;12.23;9.55;;;;;;;;;;10051544;28;20734;-69
2022/08/20 04:36:20;;;;;;;15.43;9.93;;;;;;;;;;10042592;28;20051;-69
2022/08/20 04:41:18;;;;;;;15.15;10.10;;;;;;;;;;10054449;28;20486;-68
2022/08/20 04:46:19;;;;;;;15.00;9.85;;;;;;;;;;10047136;28;20055;-68
2022/08/20 04:51:16;;;;;;;12.38;9.32;;;;;;;;;;10065418;28;20083;-69
2022/08/20 04:56:13;;;;;;;13.27;9.05;;;;;;;;;;10061643;28;20046;-67
2022/08/20 05:01:10;;;;;;;15.15;9.52;;;;;;;;;;10055474;28;20074;-67
2022/08/20 05:06:08;;;;;;;13.43;8.52;;;;;;;;;;10043305;28;20070;-67
2022/08/20 05:11:07;;;;;;;12.85;9.73;;;;;;;;;;10028814;28;20394;-68
2022/08/20 05:16:23;;;;;;;12.80;8.43;;;;;;;;;;10064426;28;20054;-68
2022/08/20 05:21:20;;;;;;;11.45;8.27;;;;;;;;;;10061195;28;20066;-68
2022/08/20 05:26:18;;;;;;;15.30;9.52;;;;;;;;;;10056356;28;20122;-69
2022/08/20 05:31:15;;;;;;;15.68;12.40;;;;;;;;;;10056274;28;20611;-68
2022/08/20 05:36:11;;;;;;;20.55;13.10;;;;;;;;;;10058647;28;20146;-69
2022/08/20 05:41:10;;;;;;;15.25;10.70;;;;;;;;;;10058996;28;20073;-67
2022/08/20 05:46:22;;;;;;;18.10;10.57;;;;;;;;;;10063744;28;20087;-68
2022/08/20 05:51:19;;;;;;;15.95;11.07;;;;;;;;;;10067129;28;20533;-68
2022/08/20 05:56:15;;;;;;;13.25;9.27;;;;;;;;;;10062544;28;20048;-68
2022/08/20 06:01:11;;;;;;;15.02;10.93;;;;;;;;;;10062619;28;20070;-67
2022/08/20 06:06:08;;;;;;;13.93;10.27;;;;;;;;;;10054276;28;20123;-68
2022/08/20 06:11:25;;;;;;;13.13;10.60;;;;;;;;;;10066946;28;20043;-67
2022/08/20 06:16:21;;;;;;;15.50;10.80;;;;;;;;;;10055137;28;20074;-67
2022/08/20 06:21:24;;;;;;;17.85;10.32;;;;;;;;;;10048571;28;20040;-67
2022/08/20 06:26:20;;;;;;;16.17;11.20;;;;;;;;;;10043279;28;20614;-68
2022/08/20 06:31:26;;;;;;;14.43;9.40;;;;;;;;;;10050897;28;20071;-68
2022/08/20 06:36:23;;;;;;;13.27;9.70;;;;;;;;;;10051844;28;20541;-69
2022/08/20 06:41:20;;;;;;;12.25;9.02;;;;;;;;;;10042285;28;20457;-69
2022/08/20 06:46:17;;;;;;;13.43;9.75;;;;;;;;;;10049065;28;20218;-70
2022/08/20 06:51:13;;;;;;;15.10;9.48;;;;;;;;;;10046652;28;20144;-68
2022/08/20 06:56:10;;;;;;;11.15;8.90;;;;;;;;;;10053439;28;20078;-68
2022/08/20 07:01:07;;;;;;;12.07;9.13;;;;;;;;;;10044732;28;20083;-69
2022/08/20 07:06:06;;;;;;;15.18;8.95;;;;;;;;;;10053764;28;20355;-69
2022/08/20 07:11:03;;;;;;;12.85;8.00;;;;;;;;;;10046797;28;20122;-70
2022/08/20 07:15:59;;;;;;;11.00;7.82;;;;;;;;;;10040243;28;20146;-69
2022/08/20 07:20:56;;;;;;;10.30;6.57;;;;;;;;;;10065112;28;20048;-68
2022/08/20 07:25:54;;;;;;;9.65;5.25;;;;;;;;;;10061922;28;20416;-70
2022/08/20 07:36:10;;;;;;;5.35;4.03;;;;;;;;;;10037526;28;20640;-70
2022/08/20 07:41:08;;;;;;;7.57;4.80;;;;;;;;;;10056963;28;20147;-71
2022/08/20 07:46:08;;;;;;;8.45;5.05;;;;;;;;;;10051378;28;20051;-70
2022/08/20 07:51:06;;;;;;;7.93;4.55;;;;;;;;;;10049556;28;20086;-70
2022/08/20 07:56:04;;;;;;;5.53;3.60;;;;;;;;;;10047260;28;20130;-70
2022/08/20 08:01:01;;;;;;;8.45;4.60;;;;;;;;;;10048198;28;20121;-71
2022/08/20 08:05:59;;;;;;;7.22;4.50;;;;;;;;;;10056613;28;20106;-70
2022/08/20 08:10:58;;;;;;;9.25;4.80;;;;;;;;;;10039563;28;20559;-70
2022/08/20 08:15:56;;;;;;;6.72;4.00;;;;;;;;;;10043100;28;20102;-70
2022/08/20 08:20:53;;;;;;;6.82;3.63;;;;;;;;;;10032712;28;20139;-70
2022/08/20 08:25:51;;;;;;;7.07;3.90;;;;;;;;;;10043917;28;20505;-70
2022/08/20 08:30:47;;;;;;;6.32;3.33;;;;;;;;;;10029811;28;20142;-70
2022/08/20 08:35:46;;;;;;;7.95;4.10;;;;;;;;;;10032188;28;20052;-71
2022/08/20 08:40:43;;;;;;;5.70;4.25;;;;;;;;;;10048660;28;20043;-71
2022/08/20 08:45:42;;;;;;;7.30;4.43;;;;;;;;;;10038891;28;20127;-70
2022/08/20 08:50:41;;;;;;;7.93;4.43;;;;;;;;;;10039435;28;20051;-69
2022/08/20 08:55:49;;;;;;;7.13;4.05;;;;;;;;;;10036864;28;20054;-69
2022/08/20 09:00:46;;;;;;;8.02;4.65;;;;;;;;;;10048378;28;20493;-69
2022/08/20 09:05:54;;;;;;;7.03;4.80;;;;;;;;;;10048288;28;20665;-69
2022/08/20 09:10:50;;;;;;;5.97;5.25;;;;;;;;;;10035433;28;20129;-69
2022/08/20 09:15:46;;;;;;;6.63;5.10;;;;;;;;;;10049503;28;20047;-69
2022/08/20 09:20:43;;;;;;;10.85;6.07;;;;;;;;;;10047664;28;20053;-69
2022/08/20 09:25:40;;;;;;;7.78;5.63;;;;;;;;;;10053959;28;20059;-69
2022/08/20 09:30:36;;;;;;;7.30;5.28;;;;;;;;;;10058274;28;20680;-69
2022/08/20 09:35:33;;;;;;;10.18;5.97;;;;;;;;;;10061598;28;20106;-69
2022/08/20 09:40:30;;;;;;;11.65;6.80;;;;;;;;;;10048925;28;20510;-69
2022/08/20 09:45:26;;;;;;;7.03;6.07;;;;;;;;;;10048929;28;20659;-69
2022/08/20 09:50:24;;;;;;;10.00;6.20;;;;;;;;;;10046353;28;20073;-69
2022/08/20 09:55:21;;;;;;;10.25;6.78;;;;;;;;;;10055900;28;20047;-69
2022/08/20 10:00:17;;;;;;;8.95;6.50;;;;;;;;;;10057599;28;20055;-69
2022/08/20 10:05:14;;;;;;;8.80;6.60;;;;;;;;;;10056128;28;20071;-69
2022/08/20 10:10:12;;;;;;;8.23;6.25;;;;;;;;;;10058509;28;20107;-69
2022/08/20 10:15:09;;;;;;;9.38;7.72;;;;;;;;;;10049109;28;20521;-67
2022/08/20 10:20:07;;;;;;;8.10;6.80;;;;;;;;;;10053967;28;20082;-69
2022/08/20 10:25:04;;;;;;;11.10;8.10;;;;;;;;;;10044158;28;20091;-70
2022/08/20 10:30:00;;;;;;;10.73;7.63;;;;;;;;;;10053413;28;20110;-69
2022/08/20 10:34:57;;;;;;;9.15;7.40;;;;;;;;;;10048650;28;20055;-69
2022/08/20 10:39:54;;;;;;;8.48;7.57;;;;;;;;;;10050346;28;20048;-69
2022/08/20 10:44:51;;;;;;;8.07;7.10;;;;;;;;;;10058142;28;20468;-69
2022/08/20 10:49:48;;;;;;;9.02;7.13;;;;;;;;;;10061217;28;20126;-69
2022/08/20 10:54:45;;;;;;;7.97;7.00;;;;;;;;;;10061459;28;20604;-70
2022/08/20 10:59:42;;;;;;;8.88;7.10;;;;;;;;;;10059377;28;20138;-69
2022/08/20 11:04:39;;;;;;;7.80;6.82;;;;;;;;;;10057224;28;20505;-69
2022/08/20 11:09:36;;;;;;;8.35;7.13;;;;;;;;;;10061205;28;20116;-69
2022/08/20 11:14:32;;;;;;;9.52;6.88;;;;;;;;;;10060371;28;20105;-69
2022/08/20 11:19:29;;;;;;;10.00;7.20;;;;;;;;;;10050826;28;20478;-69
2022/08/20 11:24:25;;;;;;;9.45;6.65;;;;;;;;;;10055537;28;20083;-69
2022/08/20 11:29:23;;;;;;;12.20;6.78;;;;;;;;;;10048555;28;20084;-69
2022/08/20 11:34:19;;;;;;;8.73;6.78;;;;;;;;;;10058857;28;20143;-69
2022/08/20 11:39:16;;;;;;;7.60;6.45;;;;;;;;;;10054790;28;20517;-69
2022/08/20 11:44:13;;;;;;;6.63;6.03;;;;;;;;;;10055943;28;20128;-69
2022/08/20 11:49:17;;;;;;;10.82;6.75;;;;;;;;;;10057364;28;20051;-69
2022/08/20 11:54:13;;;;;;;11.25;7.70;;;;;;;;;;10057355;28;20106;-69
2022/08/20 11:59:10;;;;;;;10.10;7.28;;;;;;;;;;10062070;28;20089;-70
2022/08/20 12:04:07;;;;;;;9.65;6.60;;;;;;;;;;10048393;28;20562;-69
2022/08/20 12:09:03;;;;;;;7.25;6.10;;;;;;;;;;10051644;28;21224;-69
2022/08/20 12:13:59;;;;;;;10.18;6.38;;;;;;;;;;10061730;28;20078;-69
2022/08/20 12:18:56;;;;;;;9.95;6.85;;;;;;;;;;10049122;28;20134;-69
2022/08/20 12:23:52;;;;;;;9.50;6.65;;;;;;;;;;10058628;28;20657;-69
2022/08/20 12:28:48;;;;;;;9.68;7.20;;;;;;;;;;10054174;28;20047;-69
2022/08/20 12:33:45;;;;;;;10.20;6.80;;;;;;;;;;10051797;28;20557;-69
2022/08/20 12:38:41;;;;;;;10.40;7.03;;;;;;;;;;10052644;28;20095;-69
2022/08/20 12:43:37;;;;;;;7.63;6.80;;;;;;;;;;10037178;28;20660;-69
2022/08/20 12:48:34;;;;;;;8.57;6.88;;;;;;;;;;10048711;28;20131;-69
2022/08/20 12:53:30;;;;;;;8.25;6.22;;;;;;;;;;10049781;28;20105;-69
2022/08/20 12:58:26;;;;;;;7.70;6.63;;;;;;;;;;10051201;28;20126;-69
2022/08/20 13:03:23;;;;;;;7.97;6.25;;;;;;;;;;10051198;28;20048;-69
2022/08/20 13:08:19;;;;;;;8.63;6.07;;;;;;;;;;10048004;28;20130;-69
2022/08/20 13:13:16;;;;;;;9.23;6.20;;;;;;;;;;10045822;28;20075;-70
2022/08/20 13:18:16;;;;;;;7.38;5.30;;;;;;;;;;10040934;28;20048;-69
2022/08/20 13:23:12;;;;;;;9.52;5.50;;;;;;;;;;10044294;28;20486;-69
2022/08/20 13:28:09;;;;;;;7.43;5.22;;;;;;;;;;10049833;28;20619;-69
2022/08/20 13:33:05;;;;;;;7.47;5.35;;;;;;;;;;10040142;28;20753;-68
2022/08/20 13:38:01;;;;;;;7.55;5.75;;;;;;;;;;10050861;28;20075;-69
2022/08/20 13:42:59;;;;;;;8.52;5.60;;;;;;;;;;10057153;28;20135;-69
2022/08/20 13:48:02;;;;;;;7.78;5.50;;;;;;;;;;10044474;28;20351;-69
2022/08/20 13:52:59;;;;;;;7.63;5.90;;;;;;;;;;10036820;28;20078;-69
2022/08/20 13:58:02;;;;;;;9.90;6.72;;;;;;;;;;10037998;28;20051;-69
2022/08/20 14:03:00;;;;;;;7.35;5.20;;;;;;;;;;10052384;28;20059;-68
2022/08/20 14:08:03;;;;;;;10.30;5.95;;;;;;;;;;10042743;28;20138;-69
2022/08/20 14:13:02;;;;;;;7.70;5.47;;;;;;;;;;10049988;28;20146;-70
2022/08/20 14:17:58;;;;;;;6.15;5.30;;;;;;;;;;10063808;28;20047;-69
2022/08/20 14:22:54;;;;;;;8.27;5.30;;;;;;;;;;10062836;28;20106;-69
2022/08/20 14:27:51;;;;;;;7.78;5.90;;;;;;;;;;10064770;28;20082;-69
2022/08/20 14:32:48;;;;;;;6.55;5.57;;;;;;;;;;10058682;28;20074;-69
2022/08/20 14:37:51;;;;;;;7.28;5.70;;;;;;;;;;10061974;28;20597;-68
2022/08/20 14:42:48;;;;;;;7.75;5.90;;;;;;;;;;10059709;28;20127;-68
2022/08/20 14:47:48;;;;;;;11.30;6.13;;;;;;;;;;10062481;28;20102;-68
2022/08/20 14:52:49;;;;;;;8.32;6.40;;;;;;;;;;10059469;28;20059;-68
2022/08/20 14:57:46;;;;;;;6.55;5.80;;;;;;;;;;10056127;28;20071;-68
2022/08/20 15:02:43;;;;;;;8.27;5.60;;;;;;;;;;10062920;28;20154;-68
2022/08/20 15:07:40;;;;;;;8.55;6.40;;;;;;;;;;10052475;28;20209;-68
2022/08/20 15:12:36;;;;;;;6.80;6.15;;;;;;;;;;10053951;28;20039;-69
2022/08/20 15:17:33;;;;;;;7.18;6.22;;;;;;;;;;10054793;28;20078;-68
2022/08/20 15:22:29;;;;;;;7.93;5.90;;;;;;;;;;10061995;28;20505;-68
2022/08/20 15:27:26;;;;;;;7.30;5.97;;;;;;;;;;10047729;28;20051;-68
2022/08/20 15:32:22;;;;;;;7.97;5.85;;;;;;;;;;10047867;28;20098;-68
2022/08/20 15:37:20;;;;;;;9.05;6.22;;;;;;;;;;10053489;28;20047;-67
2022/08/20 15:42:17;;;;;;;7.60;5.50;;;;;;;;;;10050451;28;20043;-68
2022/08/20 15:47:19;;;;;;;5.93;5.25;;;;;;;;;;10047148;28;20651;-68
2022/08/20 15:52:16;;;;;;;5.97;5.45;;;;;;;;;;10043369;28;20116;-67
2022/08/20 15:57:21;;;;;;;6.40;5.47;;;;;;;;;;10045654;28;20150;-68
2022/08/20 16:02:40;;;;;;;7.20;5.72;;;;;;;;;;10032615;28;20055;-67
2022/08/20 16:07:40;;;;;;;7.78;5.40;;;;;;;;;;10045310;28;20627;-67
2022/08/20 16:12:41;;;;;;;7.05;5.28;;;;;;;;;;10043968;28;20075;-67
2022/08/20 16:17:46;;;;;;;8.93;5.50;;;;;;;;;;10032073;28;20043;-67
2022/08/20 16:22:43;;;;;;;7.45;5.55;;;;;;;;;;10049349;28;20917;-66
2022/08/20 16:28:00;;;;;;;5.85;5.25;;;;;;;;;;10045934;28;20051;-67
2022/08/20 16:33:01;;;;;;;6.05;5.38;;;;;;;;;;10037610;28;20114;-68
2022/08/20 16:38:03;;;;;;;7.97;6.40;;;;;;;;;;10040185;28;20429;-68
2022/08/20 16:43:02;;;;;;;7.50;6.75;;;;;;;;;;10043546;28;20086;-67
2022/08/20 16:48:00;;;;;;;7.93;6.07;;;;;;;;;;10041104;28;20107;-67
2022/08/20 16:52:57;;;;;;;6.13;5.53;;;;;;;;;;10038193;28;20502;-67
2022/08/20 16:57:54;;;;;;;7.25;6.18;;;;;;;;;;10051542;28;20102;-69
2022/08/20 17:02:57;;;;;;;7.03;6.32;;;;;;;;;;10055911;28;20601;-68
2022/08/20 17:07:58;;;;;;;7.10;5.50;;;;;;;;;;10049753;28;20045;-68
2022/08/20 17:12:58;;;;;;;7.40;6.23;;;;;;;;;;10037905;28;20047;-67
2022/08/20 17:17:55;;;;;;;25.42;14.60;;;;;;;;;;10050488;28;20055;-67
2022/08/20 17:23:07;;;;;;;8.27;4.93;;;;;;;;;;10054817;28;20413;-67
2022/08/20 17:28:14;;;;;;;6.00;5.30;;;;;;;;;;10048637;28;20051;-66
2022/08/20 17:33:21;;;;;;;6.60;5.63;;;;;;;;;;10039111;28;20067;-67
2022/08/20 17:38:26;;;;;;;9.30;5.85;;;;;;;;;;10053276;28;20126;-67
2022/08/20 17:43:31;;;;;;;7.00;5.97;;;;;;;;;;10048710;28;20531;-67
2022/08/20 17:48:31;;;;;;;8.60;5.68;;;;;;;;;;10058138;28;20171;-69
2022/08/20 17:53:30;;;;;;;9.52;6.30;;;;;;;;;;10051317;28;20142;-67
2022/08/20 17:58:47;;;;;;;8.77;6.40;;;;;;;;;;10050350;28;20386;-67
2022/08/20 18:03:51;;;;;;;6.45;5.20;;;;;;;;;;10048713;28;20102;-67
2022/08/20 18:09:06;;;;;;;5.95;5.20;;;;;;;;;;10050944;28;20491;-67
2022/08/20 18:14:05;;;;;;;6.85;4.65;;;;;;;;;;10056699;28;20079;-67
2022/08/20 18:19:09;;;;;;;7.25;5.63;;;;;;;;;;10052228;28;20078;-67
2022/08/20 18:24:06;;;;;;;9.63;6.20;;;;;;;;;;10043990;28;20052;-67
2022/08/20 18:29:08;;;;;;;6.00;4.97;;;;;;;;;;10034296;28;20098;-67
2022/08/20 18:34:31;;;;;;;6.03;5.05;;;;;;;;;;10047966;28;20552;-67
2022/08/20 18:39:28;;;;;;;5.93;4.80;;;;;;;;;;10033209;28;20058;-66
2022/08/20 18:44:38;;;;;;;5.95;4.72;;;;;;;;;;10052843;28;20047;-68
2022/08/20 18:49:39;;;;;;;7.13;5.28;;;;;;;;;;10044810;28;20553;-67
2022/08/20 18:54:36;;;;;;;6.63;5.45;;;;;;;;;;10048693;28;20039;-66
2022/08/20 18:59:37;;;;;;;7.15;5.30;;;;;;;;;;10042622;28;20134;-68
2022/08/20 19:04:34;;;;;;;6.38;5.10;;;;;;;;;;10046010;29;20085;-67
2022/08/20 19:09:36;;;;;;;5.70;5.13;;;;;;;;;;10055963;28;20127;-67
2022/08/20 19:14:38;;;;;;;7.90;5.45;;;;;;;;;;10044205;28;20916;-67
2022/08/20 19:19:35;;;;;;;;;;;;;;;;;;10070773;28;20039;-69
2022/08/20 19:24:34;;;;;;;6.85;5.82;;;;;;;;;;10041925;28;19974;-67
2022/08/20 19:29:41;;;;;;;6.70;5.15;;;;;;;;;;10054332;28;20071;-67
2022/08/20 19:34:38;;;;;;;5.30;4.80;;;;;;;;;;10049937;28;20169;-69
2022/08/20 19:39:35;;;;;;;7.32;6.13;;;;;;;;;;10051197;28;20047;-69
2022/08/20 19:44:31;;;;;;;8.95;5.30;;;;;;;;;;10054370;28;20529;-69
2022/08/20 19:49:31;;;;;;;5.63;5.10;;;;;;;;;;10053041;28;20130;-68
2022/08/20 19:54:28;;;;;;;7.57;5.75;;;;;;;;;;10058147;28;20757;-69
2022/08/20 19:59:25;;;;;;;6.57;5.07;;;;;;;;;;10047885;28;20078;-69
2022/08/20 20:04:21;;;;;;;5.32;4.32;;;;;;;;;;10051666;28;20482;-69
2022/08/20 20:09:25;;;;;;;7.07;4.93;;;;;;;;;;10050028;28;20047;-69
2022/08/20 20:14:25;;;;;;;7.80;5.43;;;;;;;;;;10061588;28;20094;-69
2022/08/20 20:19:21;;;;;;;9.23;6.13;;;;;;;;;;10055679;28;20079;-69
2022/08/20 20:24:24;;;;;;;8.43;5.03;;;;;;;;;;10047871;28;20062;-68
2022/08/20 20:29:25;;;;;;;6.25;4.75;;;;;;;;;;10044406;28;20089;-68
2022/08/20 20:34:26;;;;;;;9.85;5.30;;;;;;;;;;10043117;28;20735;-68
2022/08/20 20:39:23;;;;;;;8.53;5.70;;;;;;;;;;10045432;28;20062;-68
2022/08/20 20:44:31;;;;;;;10.40;5.57;;;;;;;;;;10049506;28;20667;-68
2022/08/20 20:49:52;;;;;;;9.85;5.63;;;;;;;;;;10036982;28;20052;-68
2022/08/20 20:54:49;;;;;;;7.82;5.10;;;;;;;;;;10042254;28;20069;-68
2022/08/20 20:59:50;;;;;;;8.20;5.45;;;;;;;;;;10052839;28;20071;-69
2022/08/20 21:04:48;;;;;;;9.93;4.90;;;;;;;;;;10054229;28;20461;-68
2022/08/20 21:09:44;;;;;;;8.80;5.03;;;;;;;;;;10057783;28;20138;-68
2022/08/20 21:14:41;;;;;;;7.13;5.38;;;;;;;;;;10056450;28;20527;-68
2022/08/20 21:19:37;;;;;;;7.97;5.63;;;;;;;;;;10066590;28;20161;-69
2022/08/20 21:24:40;;;;;;;7.90;5.60;;;;;;;;;;10054880;28;20062;-69
2022/08/20 21:29:37;;;;;;;8.95;5.53;;;;;;;;;;10063595;28;20067;-68
2022/08/20 21:34:33;;;;;;;9.45;5.50;;;;;;;;;;10055139;28;20130;-68
2022/08/20 21:39:29;;;;;;;10.77;4.75;;;;;;;;;;10057993;28;20066;-69
2022/08/20 21:44:27;;;;;;;9.98;5.70;;;;;;;;;;10055076;28;20097;-68
2022/08/20 21:49:25;;;;;;;10.90;5.43;;;;;;;;;;10049218;28;20055;-68
2022/08/20 21:54:22;;;;;;;8.48;5.57;;;;;;;;;;10059728;28;20071;-68
2022/08/20 21:59:19;;;;;;;8.73;4.88;;;;;;;;;;10057691;28;20801;-68
2022/08/20 22:04:15;;;;;;;9.00;4.68;;;;;;;;;;10051938;28;20459;-71
2022/08/20 22:09:12;;;;;;;8.45;4.22;;;;;;;;;;10057709;28;20501;-70
2022/08/20 22:14:09;;;;;;;7.93;3.95;;;;;;;;;;10048665;28;20107;-71
2022/08/20 22:19:05;;;;;;;9.32;4.47;;;;;;;;;;10057320;28;20059;-71
2022/08/20 22:24:02;;;;;;;9.18;4.45;;;;;;;;;;10052833;28;20609;-71
2022/08/20 22:28:59;;;;;;;8.40;5.07;;;;;;;;;;10057493;28;20075;-70
2022/08/20 22:33:56;;;;;;;8.65;4.78;;;;;;;;;;10059728;28;20077;-70
2022/08/20 22:38:52;;;;;;;8.20;4.50;;;;;;;;;;10054380;28;20480;-70
2022/08/20 22:43:50;;;;;;;8.20;5.30;;;;;;;;;;10057050;28;20043;-71
2022/08/20 22:48:52;;;;;;;8.40;4.60;;;;;;;;;;10063216;28;21465;-71
2022/08/20 22:53:48;;;;;;;8.05;4.40;;;;;;;;;;10057769;28;20130;-71
2022/08/20 22:58:45;;;;;;;10.20;4.80;;;;;;;;;;10062524;28;20086;-69
2022/08/20 23:03:45;;;;;;;6.75;4.13;;;;;;;;;;10064434;28;20522;-71
2022/08/20 23:08:42;;;;;;;8.65;4.53;;;;;;;;;;10058396;28;20131;-72
2022/08/20 23:13:39;;;;;;;9.07;4.40;;;;;;;;;;10057482;28;20129;-72
2022/08/20 23:18:35;;;;;;;8.13;4.55;;;;;;;;;;10066965;28;20506;-71
2022/08/20 23:23:31;;;;;;;9.80;4.47;;;;;;;;;;10048844;28;20135;-71
2022/08/20 23:28:28;;;;;;;8.55;4.55;;;;;;;;;;10051553;28;20066;-70
2022/08/20 23:33:24;;;;;;;8.98;4.50;;;;;;;;;;10046439;28;20134;-71
2022/08/20 23:38:20;;;;;;;8.85;4.70;;;;;;;;;;10048003;28;20083;-70
2022/08/20 23:43:17;;;;;;;7.78;4.32;;;;;;;;;;10053675;28;20130;-71
2022/08/20 23:48:13;;;;;;;14.15;4.75;;;;;;;;;;10056701;28;20134;-71
2022/08/20 23:53:10;;;;;;;9.32;4.75;;;;;;;;;;10050096;28;20111;-72
2022/08/20 23:58:07;;;;;;;8.80;5.65;;;;;;;;;;10049044;28;20142;-72
